createdAt,value
2023-03-22T00:04:45.781Z,48.06
2023-03-22T00:09:48.433Z,49.57
2023-03-22T00:14:52.300Z,50.47
2023-03-22T00:19:54.812Z,49.82
2023-03-22T00:24:57.484Z,50.77
2023-03-22T00:30:00.001Z,49.84
2023-03-22T00:35:03.427Z,50.73
2023-03-22T00:40:09.173Z,50.31
2023-03-22T00:45:13.388Z,50.68
2023-03-22T00:50:16.248Z,51.30
2023-03-22T00:55:18.894Z,51.34
2023-03-22T01:00:22.272Z,51.11
2023-03-22T01:05:25.333Z,51.55
2023-03-22T01:10:29.206Z,51.08
2023-03-22T01:15:31.757Z,52.32
2023-03-22T01:20:35.078Z,52.36
2023-03-22T01:25:37.802Z,52.99
2023-03-22T01:30:41.409Z,53.33
2023-03-22T01:35:44.701Z,53.67
2023-03-22T01:40:47.595Z,53.83
2023-03-22T01:45:53.063Z,55.12
2023-03-22T01:56:13.700Z,54.44
2023-03-22T02:01:20.750Z,54.60
2023-03-22T02:06:30.004Z,55.38
2023-03-22T02:11:43.953Z,55.74
2023-03-22T02:49:37.936Z,55.76
2023-03-22T02:54:49.110Z,55.08
2023-03-22T02:59:54.367Z,55.41
2023-03-22T03:04:58.410Z,55.01
2023-03-22T03:10:01.291Z,56.21
2023-03-22T03:15:15.202Z,55.75
2023-03-22T03:30:51.924Z,57.46
2023-03-22T03:36:02.907Z,57.47
2023-03-22T03:41:10.400Z,57.52
2023-03-22T03:46:13.109Z,56.46
2023-03-22T03:51:16.083Z,57.61
2023-03-22T03:56:18.857Z,58.12
2023-03-22T04:01:24.290Z,58.64
2023-03-22T04:06:40.267Z,59.38
2023-03-22T04:11:48.613Z,60.11
2023-03-22T04:16:53.050Z,60.95
2023-03-22T04:21:57.505Z,61.37
2023-03-22T04:27:00.147Z,62.13
2023-03-22T04:32:07.257Z,60.85
2023-03-22T04:37:19.674Z,61.26
2023-03-22T04:42:28.849Z,61.34
2023-03-22T04:47:42.779Z,61.22
2023-03-22T04:52:48.239Z,60.38
2023-03-22T04:57:51.311Z,60.73
2023-03-22T05:02:54.064Z,60.79
2023-03-22T05:08:07.100Z,61.70
2023-03-22T05:13:09.872Z,61.57
2023-03-22T05:18:20.687Z,62.11
2023-03-22T05:23:24.213Z,61.71
2023-03-22T05:28:32.039Z,61.27
2023-03-22T05:33:44.272Z,61.06
2023-03-22T05:38:49.998Z,60.86
2023-03-22T05:43:53.338Z,60.40
2023-03-22T05:48:56.510Z,61.00
2023-03-22T05:54:00.559Z,60.29
2023-03-22T05:59:12.573Z,61.01
2023-03-22T06:04:18.765Z,59.83
2023-03-22T06:09:42.608Z,60.27
2023-03-22T06:14:49.817Z,59.79
2023-03-22T06:20:09.796Z,60.12
2023-03-22T06:25:15.102Z,59.87
2023-03-22T06:30:21.350Z,58.71
2023-03-22T06:35:43.957Z,59.19
2023-03-22T06:40:51.453Z,58.25
2023-03-22T06:45:54.665Z,58.66
2023-03-22T06:51:03.051Z,57.49
2023-03-22T06:56:09.623Z,57.25
2023-03-22T07:01:22.254Z,57.39
2023-03-22T07:06:25.698Z,56.66
2023-03-22T07:16:51.210Z,56.35
2023-03-22T07:21:56.494Z,56.75
2023-03-22T07:27:00.046Z,55.88
2023-03-22T07:32:09.926Z,56.52
2023-03-22T07:37:39.587Z,56.09
2023-03-22T07:42:52.912Z,55.53
2023-03-22T07:48:12.138Z,55.18
2023-03-22T07:53:27.937Z,54.54
2023-03-22T07:58:31.323Z,53.85
2023-03-22T08:03:36.432Z,53.96
2023-03-22T08:08:48.054Z,53.45
2023-03-22T08:13:51.200Z,53.07
2023-03-22T08:18:54.007Z,53.15
2023-03-22T08:23:57.796Z,52.84
2023-03-22T08:29:11.462Z,52.43
2023-03-22T08:34:15.097Z,51.99
2023-03-22T08:39:18.201Z,51.67
2023-03-22T08:44:30.534Z,51.32
2023-03-22T08:49:34.140Z,51.24
2023-03-22T08:54:44.844Z,50.59
2023-03-22T09:00:08.100Z,49.72
2023-03-22T09:05:14.812Z,49.23
2023-03-22T09:10:18.755Z,48.04
2023-03-22T09:15:24.873Z,47.78
2023-03-22T09:20:52.836Z,50.21
2023-03-22T09:26:02.313Z,50.33
2023-03-22T09:31:13.249Z,50.36
2023-03-22T09:36:18.812Z,50.53
2023-03-22T09:41:32.057Z,50.03
2023-03-22T09:46:41.275Z,50.09
2023-03-22T09:52:13.914Z,48.78
2023-03-22T10:03:10.944Z,47.84
2023-03-22T10:14:05.915Z,44.70
2023-03-22T10:19:21.603Z,44.61
2023-03-22T10:24:28.646Z,43.36
2023-03-22T10:34:45.093Z,41.75
2023-03-22T10:39:53.387Z,41.02
2023-03-22T10:45:04.299Z,42.45
2023-03-22T10:50:14.274Z,41.88
2023-03-22T10:55:17.646Z,40.26
2023-03-22T11:00:21.814Z,40.22
2023-03-22T11:05:27.861Z,39.79
2023-03-22T12:03:39.451Z,37.73
2023-03-22T12:08:47.313Z,37.23
2023-03-22T12:14:17.401Z,35.75
2023-03-22T12:24:41.316Z,34.37
2023-03-22T12:29:54.949Z,35.32
2023-03-22T12:35:16.129Z,35.95
2023-03-22T12:40:24.653Z,36.29
2023-03-22T12:45:30.204Z,36.92
2023-03-22T12:50:42.651Z,37.93
2023-03-22T12:55:47.859Z,37.49
2023-03-22T13:06:26.062Z,38.09
2023-03-22T13:11:30.369Z,38.84
2023-03-22T13:16:50.864Z,39.01
2023-03-22T13:22:16.791Z,39.21
2023-03-22T13:27:19.509Z,39.54
2023-03-22T13:32:31.126Z,39.83
2023-03-22T13:37:42.076Z,39.75
2023-03-22T13:42:47.541Z,39.24
2023-03-22T13:48:12.141Z,39.80
2023-03-22T13:53:22.494Z,39.40
2023-03-22T14:03:48.291Z,38.47
2023-03-22T14:08:57.496Z,38.30
2023-03-22T14:14:05.214Z,38.17
2023-03-22T14:19:14.388Z,38.21
